<?xml version="1.0" encoding="UTF-8" standalone="no" ?>
<gpx xmlns="http://www.topografix.com/GPX/1/1" xmlns:xsi="http://www.w3.org/2001/XMLSchema-instance" xsi:schemaLocation="http://www.topografix.com/GPX/1/1 http://www.topografix.com/GPX/1/1/gpx.xsd" version="1.1" creator="VisuGPX - https://www.visugpx.com">
  <metadata>
    <name>21KM Argentre du plessis</name>
  </metadata>
  <trk>
    <name><![CDATA[14069043-Argentre du plessis]]></name>
    <trkseg>
      <trkpt lat="48.05408" lon="-1.1619">
        <ele>88</ele>
        <time>2021-12-29T12:39:28Z</time>
      </trkpt>
      <trkpt lat="48.0541" lon="-1.16177">
        <ele>88</ele>
        <time>2021-12-29T12:39:35Z</time>
      </trkpt>
      <trkpt lat="48.05434" lon="-1.16184">
        <ele>88</ele>
        <time>2021-12-29T12:39:55Z</time>
      </trkpt>
      <trkpt lat="48.05454" lon="-1.16169">
        <ele>88</ele>
        <time>2021-12-29T12:40:13Z</time>
      </trkpt>
      <trkpt lat="48.05466" lon="-1.16166">
        <ele>89</ele>
        <time>2021-12-29T12:40:22Z</time>
      </trkpt>
      <trkpt lat="48.05473" lon="-1.16157">
        <ele>88</ele>
        <time>2021-12-29T12:40:30Z</time>
      </trkpt>
      <trkpt lat="48.05533" lon="-1.16147">
        <ele>88</ele>
        <time>2021-12-29T12:41:18Z</time>
      </trkpt>
      <trkpt lat="48.05557" lon="-1.16147">
        <ele>88</ele>
        <time>2021-12-29T12:41:37Z</time>
      </trkpt>
      <trkpt lat="48.05605" lon="-1.16155">
        <ele>88</ele>
        <time>2021-12-29T12:42:16Z</time>
      </trkpt>
      <trkpt lat="48.05639" lon="-1.16153">
        <ele>88</ele>
        <time>2021-12-29T12:42:43Z</time>
      </trkpt>
      <trkpt lat="48.05663" lon="-1.16177">
        <ele>88</ele>
        <time>2021-12-29T12:43:06Z</time>
      </trkpt>
      <trkpt lat="48.05691" lon="-1.16182">
        <ele>87</ele>
        <time>2021-12-29T12:43:29Z</time>
      </trkpt>
      <trkpt lat="48.05789" lon="-1.16189">
        <ele>84</ele>
        <time>2021-12-29T12:44:47Z</time>
      </trkpt>
      <trkpt lat="48.05808" lon="-1.1618">
        <ele>84</ele>
        <time>2021-12-29T12:45:03Z</time>
      </trkpt>
      <trkpt lat="48.05905" lon="-1.16216">
        <ele>83</ele>
        <time>2021-12-29T12:46:23Z</time>
      </trkpt>
      <trkpt lat="48.05986" lon="-1.16261">
        <ele>82</ele>
        <time>2021-12-29T12:47:33Z</time>
      </trkpt>
      <trkpt lat="48.06043" lon="-1.16305">
        <ele>81</ele>
        <time>2021-12-29T12:48:24Z</time>
      </trkpt>
      <trkpt lat="48.06086" lon="-1.16348">
        <ele>80</ele>
        <time>2021-12-29T12:49:05Z</time>
      </trkpt>
      <trkpt lat="48.06131" lon="-1.16399">
        <ele>79</ele>
        <time>2021-12-29T12:49:51Z</time>
      </trkpt>
      <trkpt lat="48.06228" lon="-1.16538">
        <ele>78</ele>
        <time>2021-12-29T12:51:38Z</time>
      </trkpt>
      <trkpt lat="48.06296" lon="-1.16645">
        <ele>76</ele>
        <time>2021-12-29T12:52:57Z</time>
      </trkpt>
      <trkpt lat="48.06344" lon="-1.1671">
        <ele>74</ele>
        <time>2021-12-29T12:53:49Z</time>
      </trkpt>
      <trkpt lat="48.06366" lon="-1.16748">
        <ele>73</ele>
        <time>2021-12-29T12:54:16Z</time>
      </trkpt>
      <trkpt lat="48.06488" lon="-1.16917">
        <ele>73</ele>
        <time>2021-12-29T12:56:29Z</time>
      </trkpt>
      <trkpt lat="48.06556" lon="-1.17018">
        <ele>71</ele>
        <time>2021-12-29T12:57:46Z</time>
      </trkpt>
      <trkpt lat="48.06564" lon="-1.17035">
        <ele>71</ele>
        <time>2021-12-29T12:57:57Z</time>
      </trkpt>
      <trkpt lat="48.0656" lon="-1.17095">
        <ele>73</ele>
        <time>2021-12-29T12:58:29Z</time>
      </trkpt>
      <trkpt lat="48.06563" lon="-1.17132">
        <ele>74</ele>
        <time>2021-12-29T12:58:49Z</time>
      </trkpt>
      <trkpt lat="48.06579" lon="-1.1714">
        <ele>73</ele>
        <time>2021-12-29T12:59:03Z</time>
      </trkpt>
      <trkpt lat="48.06625" lon="-1.17144">
        <ele>71</ele>
        <time>2021-12-29T12:59:39Z</time>
      </trkpt>
      <trkpt lat="48.06634" lon="-1.17149">
        <ele>70</ele>
        <time>2021-12-29T12:59:47Z</time>
      </trkpt>
      <trkpt lat="48.06661" lon="-1.17192">
        <ele>69</ele>
        <time>2021-12-29T13:00:19Z</time>
      </trkpt>
      <trkpt lat="48.06789" lon="-1.17476">
        <ele>69</ele>
        <time>2021-12-29T13:03:22Z</time>
      </trkpt>
      <trkpt lat="48.06864" lon="-1.17609">
        <ele>70</ele>
        <time>2021-12-29T13:04:55Z</time>
      </trkpt>
      <trkpt lat="48.06879" lon="-1.17642">
        <ele>70</ele>
        <time>2021-12-29T13:05:16Z</time>
      </trkpt>
      <trkpt lat="48.06979" lon="-1.17778">
        <ele>71</ele>
        <time>2021-12-29T13:07:05Z</time>
      </trkpt>
      <trkpt lat="48.0703" lon="-1.17836">
        <ele>71</ele>
        <time>2021-12-29T13:07:56Z</time>
      </trkpt>
      <trkpt lat="48.07038" lon="-1.1779">
        <ele>70</ele>
        <time>2021-12-29T13:08:21Z</time>
      </trkpt>
      <trkpt lat="48.07034" lon="-1.1775">
        <ele>69</ele>
        <time>2021-12-29T13:08:43Z</time>
      </trkpt>
      <trkpt lat="48.07038" lon="-1.1772">
        <ele>69</ele>
        <time>2021-12-29T13:08:59Z</time>
      </trkpt>
      <trkpt lat="48.07035" lon="-1.17578">
        <ele>72</ele>
        <time>2021-12-29T13:10:15Z</time>
      </trkpt>
      <trkpt lat="48.07039" lon="-1.17564">
        <ele>73</ele>
        <time>2021-12-29T13:10:24Z</time>
      </trkpt>
      <trkpt lat="48.0704" lon="-1.17442">
        <ele>77</ele>
        <time>2021-12-29T13:11:29Z</time>
      </trkpt>
      <trkpt lat="48.07047" lon="-1.1741">
        <ele>79</ele>
        <time>2021-12-29T13:11:47Z</time>
      </trkpt>
      <trkpt lat="48.07136" lon="-1.17339">
        <ele>85</ele>
        <time>2021-12-29T13:13:08Z</time>
      </trkpt>
      <trkpt lat="48.07269" lon="-1.17241">
        <ele>89</ele>
        <time>2021-12-29T13:15:06Z</time>
      </trkpt>
      <trkpt lat="48.07296" lon="-1.17218">
        <ele>88</ele>
        <time>2021-12-29T13:15:31Z</time>
      </trkpt>
      <trkpt lat="48.07316" lon="-1.17194">
        <ele>87</ele>
        <time>2021-12-29T13:15:52Z</time>
      </trkpt>
      <trkpt lat="48.07352" lon="-1.1711">
        <ele>88</ele>
        <time>2021-12-29T13:16:45Z</time>
      </trkpt>
      <trkpt lat="48.074" lon="-1.16973">
        <ele>86</ele>
        <time>2021-12-29T13:18:08Z</time>
      </trkpt>
      <trkpt lat="48.07454" lon="-1.1684">
        <ele>87</ele>
        <time>2021-12-29T13:19:31Z</time>
      </trkpt>
      <trkpt lat="48.07472" lon="-1.16815">
        <ele>87</ele>
        <time>2021-12-29T13:19:51Z</time>
      </trkpt>
      <trkpt lat="48.07496" lon="-1.16791">
        <ele>86</ele>
        <time>2021-12-29T13:20:14Z</time>
      </trkpt>
      <trkpt lat="48.07559" lon="-1.16704">
        <ele>76</ele>
        <time>2021-12-29T13:21:23Z</time>
      </trkpt>
      <trkpt lat="48.07613" lon="-1.16612">
        <ele>74</ele>
        <time>2021-12-29T13:22:28Z</time>
      </trkpt>
      <trkpt lat="48.07629" lon="-1.16576">
        <ele>76</ele>
        <time>2021-12-29T13:22:51Z</time>
      </trkpt>
      <trkpt lat="48.07653" lon="-1.16569">
        <ele>78</ele>
        <time>2021-12-29T13:23:11Z</time>
      </trkpt>
      <trkpt lat="48.07674" lon="-1.1655">
        <ele>80</ele>
        <time>2021-12-29T13:23:30Z</time>
      </trkpt>
      <trkpt lat="48.07771" lon="-1.16388">
        <ele>84</ele>
        <time>2021-12-29T13:25:27Z</time>
      </trkpt>
      <trkpt lat="48.07823" lon="-1.16326">
        <ele>82</ele>
        <time>2021-12-29T13:26:20Z</time>
      </trkpt>
      <trkpt lat="48.07841" lon="-1.16322">
        <ele>81</ele>
        <time>2021-12-29T13:26:35Z</time>
      </trkpt>
      <trkpt lat="48.07878" lon="-1.16323">
        <ele>80</ele>
        <time>2021-12-29T13:27:04Z</time>
      </trkpt>
      <trkpt lat="48.07898" lon="-1.16331">
        <ele>79</ele>
        <time>2021-12-29T13:27:21Z</time>
      </trkpt>
      <trkpt lat="48.07982" lon="-1.16327">
        <ele>77</ele>
        <time>2021-12-29T13:28:28Z</time>
      </trkpt>
      <trkpt lat="48.0807" lon="-1.16338">
        <ele>77</ele>
        <time>2021-12-29T13:29:39Z</time>
      </trkpt>
      <trkpt lat="48.08113" lon="-1.16334">
        <ele>78</ele>
        <time>2021-12-29T13:30:13Z</time>
      </trkpt>
      <trkpt lat="48.08128" lon="-1.16329">
        <ele>78</ele>
        <time>2021-12-29T13:30:26Z</time>
      </trkpt>
      <trkpt lat="48.0813" lon="-1.16325">
        <ele>79</ele>
        <time>2021-12-29T13:30:28Z</time>
      </trkpt>
      <trkpt lat="48.0814" lon="-1.16268">
        <ele>83</ele>
        <time>2021-12-29T13:31:00Z</time>
      </trkpt>
      <trkpt lat="48.08148" lon="-1.16252">
        <ele>84</ele>
        <time>2021-12-29T13:31:10Z</time>
      </trkpt>
      <trkpt lat="48.08157" lon="-1.16245">
        <ele>85</ele>
        <time>2021-12-29T13:31:19Z</time>
      </trkpt>
      <trkpt lat="48.08176" lon="-1.16241">
        <ele>85</ele>
        <time>2021-12-29T13:31:34Z</time>
      </trkpt>
      <trkpt lat="48.08193" lon="-1.16231">
        <ele>85</ele>
        <time>2021-12-29T13:31:49Z</time>
      </trkpt>
      <trkpt lat="48.08202" lon="-1.16231">
        <ele>85</ele>
        <time>2021-12-29T13:31:56Z</time>
      </trkpt>
      <trkpt lat="48.08214" lon="-1.16259">
        <ele>84</ele>
        <time>2021-12-29T13:32:14Z</time>
      </trkpt>
      <trkpt lat="48.08278" lon="-1.16499">
        <ele>82</ele>
        <time>2021-12-29T13:34:32Z</time>
      </trkpt>
      <trkpt lat="48.08289" lon="-1.16523">
        <ele>85</ele>
        <time>2021-12-29T13:34:47Z</time>
      </trkpt>
      <trkpt lat="48.083" lon="-1.16528">
        <ele>87</ele>
        <time>2021-12-29T13:34:57Z</time>
      </trkpt>
      <trkpt lat="48.08312" lon="-1.16527">
        <ele>88</ele>
        <time>2021-12-29T13:35:06Z</time>
      </trkpt>
      <trkpt lat="48.08356" lon="-1.16497">
        <ele>89</ele>
        <time>2021-12-29T13:35:45Z</time>
      </trkpt>
      <trkpt lat="48.08373" lon="-1.16474">
        <ele>88</ele>
        <time>2021-12-29T13:36:03Z</time>
      </trkpt>
      <trkpt lat="48.08404" lon="-1.16478">
        <ele>91</ele>
        <time>2021-12-29T13:36:28Z</time>
      </trkpt>
      <trkpt lat="48.0848" lon="-1.16464">
        <ele>90</ele>
        <time>2021-12-29T13:37:29Z</time>
      </trkpt>
      <trkpt lat="48.08505" lon="-1.16463">
        <ele>89</ele>
        <time>2021-12-29T13:37:49Z</time>
      </trkpt>
      <trkpt lat="48.0852" lon="-1.16471">
        <ele>90</ele>
        <time>2021-12-29T13:38:02Z</time>
      </trkpt>
      <trkpt lat="48.08559" lon="-1.16473">
        <ele>89</ele>
        <time>2021-12-29T13:38:33Z</time>
      </trkpt>
      <trkpt lat="48.08603" lon="-1.16505">
        <ele>89</ele>
        <time>2021-12-29T13:39:13Z</time>
      </trkpt>
      <trkpt lat="48.08639" lon="-1.16517">
        <ele>88</ele>
        <time>2021-12-29T13:39:42Z</time>
      </trkpt>
      <trkpt lat="48.08706" lon="-1.16552">
        <ele>88</ele>
        <time>2021-12-29T13:40:39Z</time>
      </trkpt>
      <trkpt lat="48.08725" lon="-1.1657">
        <ele>88</ele>
        <time>2021-12-29T13:40:57Z</time>
      </trkpt>
      <trkpt lat="48.08787" lon="-1.16672">
        <ele>89</ele>
        <time>2021-12-29T13:42:11Z</time>
      </trkpt>
      <trkpt lat="48.08816" lon="-1.1674">
        <ele>88</ele>
        <time>2021-12-29T13:42:54Z</time>
      </trkpt>
      <trkpt lat="48.08839" lon="-1.1684">
        <ele>89</ele>
        <time>2021-12-29T13:43:50Z</time>
      </trkpt>
      <trkpt lat="48.08848" lon="-1.1686">
        <ele>90</ele>
        <time>2021-12-29T13:44:03Z</time>
      </trkpt>
      <trkpt lat="48.08859" lon="-1.16867">
        <ele>90</ele>
        <time>2021-12-29T13:44:13Z</time>
      </trkpt>
      <trkpt lat="48.08959" lon="-1.16807">
        <ele>89</ele>
        <time>2021-12-29T13:45:39Z</time>
      </trkpt>
      <trkpt lat="48.08964" lon="-1.16795">
        <ele>89</ele>
        <time>2021-12-29T13:45:47Z</time>
      </trkpt>
      <trkpt lat="48.0896" lon="-1.16742">
        <ele>89</ele>
        <time>2021-12-29T13:46:15Z</time>
      </trkpt>
      <trkpt lat="48.08978" lon="-1.1669">
        <ele>90</ele>
        <time>2021-12-29T13:46:47Z</time>
      </trkpt>
      <trkpt lat="48.09031" lon="-1.16605">
        <ele>91</ele>
        <time>2021-12-29T13:47:49Z</time>
      </trkpt>
      <trkpt lat="48.09047" lon="-1.16565">
        <ele>90</ele>
        <time>2021-12-29T13:48:14Z</time>
      </trkpt>
      <trkpt lat="48.09063" lon="-1.16546">
        <ele>89</ele>
        <time>2021-12-29T13:48:30Z</time>
      </trkpt>
      <trkpt lat="48.09089" lon="-1.16545">
        <ele>90</ele>
        <time>2021-12-29T13:48:51Z</time>
      </trkpt>
      <trkpt lat="48.09201" lon="-1.16561">
        <ele>90</ele>
        <time>2021-12-29T13:50:21Z</time>
      </trkpt>
      <trkpt lat="48.09231" lon="-1.16559">
        <ele>89</ele>
        <time>2021-12-29T13:50:45Z</time>
      </trkpt>
      <trkpt lat="48.09263" lon="-1.16552">
        <ele>87</ele>
        <time>2021-12-29T13:51:11Z</time>
      </trkpt>
      <trkpt lat="48.09414" lon="-1.16502">
        <ele>87</ele>
        <time>2021-12-29T13:53:15Z</time>
      </trkpt>
      <trkpt lat="48.09489" lon="-1.16487">
        <ele>89</ele>
        <time>2021-12-29T13:54:15Z</time>
      </trkpt>
      <trkpt lat="48.09543" lon="-1.16487">
        <ele>89</ele>
        <time>2021-12-29T13:54:59Z</time>
      </trkpt>
      <trkpt lat="48.09609" lon="-1.16509">
        <ele>90</ele>
        <time>2021-12-29T13:55:53Z</time>
      </trkpt>
      <trkpt lat="48.09634" lon="-1.16498">
        <ele>91</ele>
        <time>2021-12-29T13:56:14Z</time>
      </trkpt>
      <trkpt lat="48.0965" lon="-1.16473">
        <ele>91</ele>
        <time>2021-12-29T13:56:32Z</time>
      </trkpt>
      <trkpt lat="48.09682" lon="-1.16399">
        <ele>91</ele>
        <time>2021-12-29T13:57:19Z</time>
      </trkpt>
      <trkpt lat="48.09698" lon="-1.16376">
        <ele>92</ele>
        <time>2021-12-29T13:57:37Z</time>
      </trkpt>
      <trkpt lat="48.09716" lon="-1.16338">
        <ele>92</ele>
        <time>2021-12-29T13:58:02Z</time>
      </trkpt>
      <trkpt lat="48.09744" lon="-1.16303">
        <ele>94</ele>
        <time>2021-12-29T13:58:31Z</time>
      </trkpt>
      <trkpt lat="48.09767" lon="-1.16293">
        <ele>96</ele>
        <time>2021-12-29T13:58:50Z</time>
      </trkpt>
      <trkpt lat="48.09811" lon="-1.16251">
        <ele>99</ele>
        <time>2021-12-29T13:59:32Z</time>
      </trkpt>
      <trkpt lat="48.09837" lon="-1.16248">
        <ele>101</ele>
        <time>2021-12-29T13:59:53Z</time>
      </trkpt>
      <trkpt lat="48.09862" lon="-1.16234">
        <ele>99</ele>
        <time>2021-12-29T14:00:14Z</time>
      </trkpt>
      <trkpt lat="48.09966" lon="-1.16121">
        <ele>91</ele>
        <time>2021-12-29T14:01:57Z</time>
      </trkpt>
      <trkpt lat="48.09997" lon="-1.16102">
        <ele>92</ele>
        <time>2021-12-29T14:02:24Z</time>
      </trkpt>
      <trkpt lat="48.1003" lon="-1.16074">
        <ele>91</ele>
        <time>2021-12-29T14:02:54Z</time>
      </trkpt>
      <trkpt lat="48.10035" lon="-1.16058">
        <ele>91</ele>
        <time>2021-12-29T14:03:04Z</time>
      </trkpt>
      <trkpt lat="48.10026" lon="-1.16002">
        <ele>88</ele>
        <time>2021-12-29T14:03:35Z</time>
      </trkpt>
      <trkpt lat="48.10015" lon="-1.15963">
        <ele>86</ele>
        <time>2021-12-29T14:03:57Z</time>
      </trkpt>
      <trkpt lat="48.10016" lon="-1.15949">
        <ele>86</ele>
        <time>2021-12-29T14:04:05Z</time>
      </trkpt>
      <trkpt lat="48.10024" lon="-1.15938">
        <ele>86</ele>
        <time>2021-12-29T14:04:13Z</time>
      </trkpt>
      <trkpt lat="48.10077" lon="-1.15899">
        <ele>88</ele>
        <time>2021-12-29T14:05:01Z</time>
      </trkpt>
      <trkpt lat="48.101" lon="-1.15864">
        <ele>89</ele>
        <time>2021-12-29T14:05:27Z</time>
      </trkpt>
      <trkpt lat="48.10118" lon="-1.15827">
        <ele>88</ele>
        <time>2021-12-29T14:05:52Z</time>
      </trkpt>
      <trkpt lat="48.10134" lon="-1.15812">
        <ele>87</ele>
        <time>2021-12-29T14:06:07Z</time>
      </trkpt>
      <trkpt lat="48.10149" lon="-1.15818">
        <ele>89</ele>
        <time>2021-12-29T14:06:19Z</time>
      </trkpt>
      <trkpt lat="48.1017" lon="-1.15838">
        <ele>92</ele>
        <time>2021-12-29T14:06:39Z</time>
      </trkpt>
      <trkpt lat="48.10207" lon="-1.15849">
        <ele>96</ele>
        <time>2021-12-29T14:07:09Z</time>
      </trkpt>
      <trkpt lat="48.10242" lon="-1.15839">
        <ele>97</ele>
        <time>2021-12-29T14:07:38Z</time>
      </trkpt>
      <trkpt lat="48.10272" lon="-1.15843">
        <ele>97</ele>
        <time>2021-12-29T14:08:02Z</time>
      </trkpt>
      <trkpt lat="48.10323" lon="-1.1583">
        <ele>95</ele>
        <time>2021-12-29T14:08:43Z</time>
      </trkpt>
      <trkpt lat="48.10355" lon="-1.15831">
        <ele>93</ele>
        <time>2021-12-29T14:09:09Z</time>
      </trkpt>
      <trkpt lat="48.10369" lon="-1.15842">
        <ele>92</ele>
        <time>2021-12-29T14:09:22Z</time>
      </trkpt>
      <trkpt lat="48.10389" lon="-1.15846">
        <ele>91</ele>
        <time>2021-12-29T14:09:38Z</time>
      </trkpt>
      <trkpt lat="48.104" lon="-1.15854">
        <ele>91</ele>
        <time>2021-12-29T14:09:47Z</time>
      </trkpt>
      <trkpt lat="48.10408" lon="-1.15867">
        <ele>91</ele>
        <time>2021-12-29T14:09:57Z</time>
      </trkpt>
      <trkpt lat="48.10414" lon="-1.15898">
        <ele>93</ele>
        <time>2021-12-29T14:10:14Z</time>
      </trkpt>
      <trkpt lat="48.10417" lon="-1.15899">
        <ele>93</ele>
        <time>2021-12-29T14:10:17Z</time>
      </trkpt>
      <trkpt lat="48.1044" lon="-1.15882">
        <ele>92</ele>
        <time>2021-12-29T14:10:37Z</time>
      </trkpt>
      <trkpt lat="48.10459" lon="-1.15882">
        <ele>92</ele>
        <time>2021-12-29T14:10:52Z</time>
      </trkpt>
      <trkpt lat="48.10489" lon="-1.15874">
        <ele>91</ele>
        <time>2021-12-29T14:11:17Z</time>
      </trkpt>
      <trkpt lat="48.10522" lon="-1.15858">
        <ele>90</ele>
        <time>2021-12-29T14:11:45Z</time>
      </trkpt>
      <trkpt lat="48.10546" lon="-1.15854">
        <ele>91</ele>
        <time>2021-12-29T14:12:04Z</time>
      </trkpt>
      <trkpt lat="48.10598" lon="-1.1583">
        <ele>90</ele>
        <time>2021-12-29T14:12:47Z</time>
      </trkpt>
      <trkpt lat="48.10665" lon="-1.15812">
        <ele>90</ele>
        <time>2021-12-29T14:13:42Z</time>
      </trkpt>
      <trkpt lat="48.10715" lon="-1.15812">
        <ele>90</ele>
        <time>2021-12-29T14:14:22Z</time>
      </trkpt>
      <trkpt lat="48.10754" lon="-1.15822">
        <ele>90</ele>
        <time>2021-12-29T14:14:54Z</time>
      </trkpt>
      <trkpt lat="48.10806" lon="-1.15825">
        <ele>90</ele>
        <time>2021-12-29T14:15:35Z</time>
      </trkpt>
      <trkpt lat="48.10839" lon="-1.1578">
        <ele>87</ele>
        <time>2021-12-29T14:16:11Z</time>
      </trkpt>
      <trkpt lat="48.10852" lon="-1.1577">
        <ele>87</ele>
        <time>2021-12-29T14:16:23Z</time>
      </trkpt>
      <trkpt lat="48.10866" lon="-1.1577">
        <ele>87</ele>
        <time>2021-12-29T14:16:34Z</time>
      </trkpt>
      <trkpt lat="48.10895" lon="-1.1578">
        <ele>88</ele>
        <time>2021-12-29T14:16:58Z</time>
      </trkpt>
      <trkpt lat="48.10912" lon="-1.15781">
        <ele>88</ele>
        <time>2021-12-29T14:17:11Z</time>
      </trkpt>
      <trkpt lat="48.10947" lon="-1.15775">
        <ele>87</ele>
        <time>2021-12-29T14:17:40Z</time>
      </trkpt>
      <trkpt lat="48.10961" lon="-1.15768">
        <ele>87</ele>
        <time>2021-12-29T14:17:51Z</time>
      </trkpt>
      <trkpt lat="48.11018" lon="-1.15723">
        <ele>88</ele>
        <time>2021-12-29T14:18:43Z</time>
      </trkpt>
      <trkpt lat="48.11025" lon="-1.15711">
        <ele>88</ele>
        <time>2021-12-29T14:18:52Z</time>
      </trkpt>
      <trkpt lat="48.11025" lon="-1.15697">
        <ele>88</ele>
        <time>2021-12-29T14:18:59Z</time>
      </trkpt>
      <trkpt lat="48.11005" lon="-1.15623">
        <ele>89</ele>
        <time>2021-12-29T14:19:42Z</time>
      </trkpt>
      <trkpt lat="48.10962" lon="-1.15519">
        <ele>88</ele>
        <time>2021-12-29T14:20:47Z</time>
      </trkpt>
      <trkpt lat="48.10917" lon="-1.15385">
        <ele>87</ele>
        <time>2021-12-29T14:22:07Z</time>
      </trkpt>
      <trkpt lat="48.10899" lon="-1.15314">
        <ele>87</ele>
        <time>2021-12-29T14:22:48Z</time>
      </trkpt>
      <trkpt lat="48.10876" lon="-1.15253">
        <ele>86</ele>
        <time>2021-12-29T14:23:25Z</time>
      </trkpt>
      <trkpt lat="48.10829" lon="-1.15071">
        <ele>87</ele>
        <time>2021-12-29T14:25:10Z</time>
      </trkpt>
      <trkpt lat="48.10814" lon="-1.15049">
        <ele>87</ele>
        <time>2021-12-29T14:25:27Z</time>
      </trkpt>
      <trkpt lat="48.10792" lon="-1.1504">
        <ele>86</ele>
        <time>2021-12-29T14:25:45Z</time>
      </trkpt>
      <trkpt lat="48.1077" lon="-1.15039">
        <ele>85</ele>
        <time>2021-12-29T14:26:02Z</time>
      </trkpt>
      <trkpt lat="48.10734" lon="-1.14772">
        <ele>87</ele>
        <time>2021-12-29T14:28:28Z</time>
      </trkpt>
      <trkpt lat="48.1071" lon="-1.14658">
        <ele>87</ele>
        <time>2021-12-29T14:29:32Z</time>
      </trkpt>
      <trkpt lat="48.10699" lon="-1.14627">
        <ele>87</ele>
        <time>2021-12-29T14:29:51Z</time>
      </trkpt>
      <trkpt lat="48.10675" lon="-1.1459">
        <ele>86</ele>
        <time>2021-12-29T14:30:18Z</time>
      </trkpt>
      <trkpt lat="48.10654" lon="-1.14581">
        <ele>85</ele>
        <time>2021-12-29T14:30:36Z</time>
      </trkpt>
      <trkpt lat="48.10608" lon="-1.14597">
        <ele>86</ele>
        <time>2021-12-29T14:31:14Z</time>
      </trkpt>
      <trkpt lat="48.10596" lon="-1.14606">
        <ele>86</ele>
        <time>2021-12-29T14:31:24Z</time>
      </trkpt>
      <trkpt lat="48.10591" lon="-1.14618">
        <ele>87</ele>
        <time>2021-12-29T14:31:32Z</time>
      </trkpt>
      <trkpt lat="48.10612" lon="-1.14786">
        <ele>91</ele>
        <time>2021-12-29T14:33:03Z</time>
      </trkpt>
      <trkpt lat="48.10615" lon="-1.14841">
        <ele>90</ele>
        <time>2021-12-29T14:33:33Z</time>
      </trkpt>
      <trkpt lat="48.10611" lon="-1.14871">
        <ele>90</ele>
        <time>2021-12-29T14:33:49Z</time>
      </trkpt>
      <trkpt lat="48.10618" lon="-1.14905">
        <ele>88</ele>
        <time>2021-12-29T14:34:08Z</time>
      </trkpt>
      <trkpt lat="48.1062" lon="-1.14983">
        <ele>88</ele>
        <time>2021-12-29T14:34:50Z</time>
      </trkpt>
      <trkpt lat="48.10617" lon="-1.15059">
        <ele>88</ele>
        <time>2021-12-29T14:35:31Z</time>
      </trkpt>
      <trkpt lat="48.10622" lon="-1.15075">
        <ele>88</ele>
        <time>2021-12-29T14:35:40Z</time>
      </trkpt>
      <trkpt lat="48.10604" lon="-1.15146">
        <ele>91</ele>
        <time>2021-12-29T14:36:21Z</time>
      </trkpt>
      <trkpt lat="48.10597" lon="-1.1521">
        <ele>90</ele>
        <time>2021-12-29T14:36:55Z</time>
      </trkpt>
      <trkpt lat="48.10601" lon="-1.15282">
        <ele>88</ele>
        <time>2021-12-29T14:37:34Z</time>
      </trkpt>
      <trkpt lat="48.10596" lon="-1.15322">
        <ele>88</ele>
        <time>2021-12-29T14:37:56Z</time>
      </trkpt>
      <trkpt lat="48.10597" lon="-1.15358">
        <ele>88</ele>
        <time>2021-12-29T14:38:15Z</time>
      </trkpt>
      <trkpt lat="48.10589" lon="-1.15389">
        <ele>88</ele>
        <time>2021-12-29T14:38:33Z</time>
      </trkpt>
      <trkpt lat="48.10595" lon="-1.15433">
        <ele>87</ele>
        <time>2021-12-29T14:38:57Z</time>
      </trkpt>
      <trkpt lat="48.1058" lon="-1.15476">
        <ele>87</ele>
        <time>2021-12-29T14:39:23Z</time>
      </trkpt>
      <trkpt lat="48.10552" lon="-1.15504">
        <ele>89</ele>
        <time>2021-12-29T14:39:50Z</time>
      </trkpt>
      <trkpt lat="48.10524" lon="-1.15559">
        <ele>89</ele>
        <time>2021-12-29T14:40:27Z</time>
      </trkpt>
      <trkpt lat="48.10509" lon="-1.15572">
        <ele>89</ele>
        <time>2021-12-29T14:40:41Z</time>
      </trkpt>
      <trkpt lat="48.10431" lon="-1.15616">
        <ele>92</ele>
        <time>2021-12-29T14:41:47Z</time>
      </trkpt>
      <trkpt lat="48.10388" lon="-1.15667">
        <ele>89</ele>
        <time>2021-12-29T14:42:31Z</time>
      </trkpt>
      <trkpt lat="48.10365" lon="-1.15676">
        <ele>90</ele>
        <time>2021-12-29T14:42:50Z</time>
      </trkpt>
      <trkpt lat="48.10328" lon="-1.1567">
        <ele>93</ele>
        <time>2021-12-29T14:43:20Z</time>
      </trkpt>
      <trkpt lat="48.10256" lon="-1.15634">
        <ele>94</ele>
        <time>2021-12-29T14:44:21Z</time>
      </trkpt>
      <trkpt lat="48.10227" lon="-1.15608">
        <ele>95</ele>
        <time>2021-12-29T14:44:48Z</time>
      </trkpt>
      <trkpt lat="48.10198" lon="-1.15558">
        <ele>97</ele>
        <time>2021-12-29T14:45:23Z</time>
      </trkpt>
      <trkpt lat="48.10165" lon="-1.15518">
        <ele>97</ele>
        <time>2021-12-29T14:45:57Z</time>
      </trkpt>
      <trkpt lat="48.10145" lon="-1.15479">
        <ele>98</ele>
        <time>2021-12-29T14:46:24Z</time>
      </trkpt>
      <trkpt lat="48.10117" lon="-1.1544">
        <ele>99</ele>
        <time>2021-12-29T14:46:54Z</time>
      </trkpt>
      <trkpt lat="48.10094" lon="-1.1542">
        <ele>99</ele>
        <time>2021-12-29T14:47:15Z</time>
      </trkpt>
      <trkpt lat="48.1007" lon="-1.15418">
        <ele>99</ele>
        <time>2021-12-29T14:47:35Z</time>
      </trkpt>
      <trkpt lat="48.1006" lon="-1.15422">
        <ele>98</ele>
        <time>2021-12-29T14:47:43Z</time>
      </trkpt>
      <trkpt lat="48.10042" lon="-1.15449">
        <ele>96</ele>
        <time>2021-12-29T14:48:03Z</time>
      </trkpt>
      <trkpt lat="48.1" lon="-1.15536">
        <ele>89</ele>
        <time>2021-12-29T14:49:01Z</time>
      </trkpt>
      <trkpt lat="48.09989" lon="-1.15577">
        <ele>87</ele>
        <time>2021-12-29T14:49:24Z</time>
      </trkpt>
      <trkpt lat="48.09983" lon="-1.15587">
        <ele>87</ele>
        <time>2021-12-29T14:49:32Z</time>
      </trkpt>
      <trkpt lat="48.09927" lon="-1.1562">
        <ele>87</ele>
        <time>2021-12-29T14:50:20Z</time>
      </trkpt>
      <trkpt lat="48.09838" lon="-1.15681">
        <ele>90</ele>
        <time>2021-12-29T14:51:38Z</time>
      </trkpt>
      <trkpt lat="48.09815" lon="-1.15716">
        <ele>91</ele>
        <time>2021-12-29T14:52:04Z</time>
      </trkpt>
      <trkpt lat="48.09801" lon="-1.15768">
        <ele>91</ele>
        <time>2021-12-29T14:52:34Z</time>
      </trkpt>
      <trkpt lat="48.0978" lon="-1.15817">
        <ele>92</ele>
        <time>2021-12-29T14:53:06Z</time>
      </trkpt>
      <trkpt lat="48.09764" lon="-1.15879">
        <ele>92</ele>
        <time>2021-12-29T14:53:41Z</time>
      </trkpt>
      <trkpt lat="48.09763" lon="-1.15943">
        <ele>89</ele>
        <time>2021-12-29T14:54:15Z</time>
      </trkpt>
      <trkpt lat="48.09769" lon="-1.15976">
        <ele>87</ele>
        <time>2021-12-29T14:54:34Z</time>
      </trkpt>
      <trkpt lat="48.09767" lon="-1.16016">
        <ele>86</ele>
        <time>2021-12-29T14:54:55Z</time>
      </trkpt>
      <trkpt lat="48.0976" lon="-1.1603">
        <ele>85</ele>
        <time>2021-12-29T14:55:04Z</time>
      </trkpt>
      <trkpt lat="48.0974" lon="-1.16045">
        <ele>85</ele>
        <time>2021-12-29T14:55:22Z</time>
      </trkpt>
      <trkpt lat="48.09725" lon="-1.16053">
        <ele>85</ele>
        <time>2021-12-29T14:55:35Z</time>
      </trkpt>
      <trkpt lat="48.09699" lon="-1.16058">
        <ele>85</ele>
        <time>2021-12-29T14:55:56Z</time>
      </trkpt>
      <trkpt lat="48.09683" lon="-1.16042">
        <ele>86</ele>
        <time>2021-12-29T14:56:11Z</time>
      </trkpt>
      <trkpt lat="48.09651" lon="-1.1602">
        <ele>87</ele>
        <time>2021-12-29T14:56:40Z</time>
      </trkpt>
      <trkpt lat="48.09629" lon="-1.15982">
        <ele>87</ele>
        <time>2021-12-29T14:57:07Z</time>
      </trkpt>
      <trkpt lat="48.09611" lon="-1.15979">
        <ele>86</ele>
        <time>2021-12-29T14:57:21Z</time>
      </trkpt>
      <trkpt lat="48.09608" lon="-1.15966">
        <ele>86</ele>
        <time>2021-12-29T14:57:28Z</time>
      </trkpt>
      <trkpt lat="48.09606" lon="-1.15971">
        <ele>86</ele>
        <time>2021-12-29T14:57:32Z</time>
      </trkpt>
      <trkpt lat="48.09604" lon="-1.15967">
        <ele>86</ele>
        <time>2021-12-29T14:57:34Z</time>
      </trkpt>
      <trkpt lat="48.09606" lon="-1.1597">
        <ele>86</ele>
        <time>2021-12-29T14:57:36Z</time>
      </trkpt>
      <trkpt lat="48.09605" lon="-1.15956">
        <ele>86</ele>
        <time>2021-12-29T14:57:44Z</time>
      </trkpt>
      <trkpt lat="48.09607" lon="-1.15974">
        <ele>86</ele>
        <time>2021-12-29T14:57:54Z</time>
      </trkpt>
      <trkpt lat="48.09606" lon="-1.15969">
        <ele>86</ele>
        <time>2021-12-29T14:57:57Z</time>
      </trkpt>
      <trkpt lat="48.09615" lon="-1.15966">
        <ele>87</ele>
        <time>2021-12-29T14:58:04Z</time>
      </trkpt>
      <trkpt lat="48.09628" lon="-1.15949">
        <ele>87</ele>
        <time>2021-12-29T14:58:18Z</time>
      </trkpt>
      <trkpt lat="48.09614" lon="-1.15857">
        <ele>88</ele>
        <time>2021-12-29T14:59:08Z</time>
      </trkpt>
      <trkpt lat="48.09615" lon="-1.1582">
        <ele>88</ele>
        <time>2021-12-29T14:59:28Z</time>
      </trkpt>
      <trkpt lat="48.09608" lon="-1.15745">
        <ele>89</ele>
        <time>2021-12-29T15:00:08Z</time>
      </trkpt>
      <trkpt lat="48.09605" lon="-1.15729">
        <ele>88</ele>
        <time>2021-12-29T15:00:17Z</time>
      </trkpt>
      <trkpt lat="48.09595" lon="-1.15715">
        <ele>88</ele>
        <time>2021-12-29T15:00:28Z</time>
      </trkpt>
      <trkpt lat="48.09576" lon="-1.15707">
        <ele>88</ele>
        <time>2021-12-29T15:00:44Z</time>
      </trkpt>
      <trkpt lat="48.0957" lon="-1.15708">
        <ele>88</ele>
        <time>2021-12-29T15:00:49Z</time>
      </trkpt>
      <trkpt lat="48.09536" lon="-1.15756">
        <ele>87</ele>
        <time>2021-12-29T15:01:26Z</time>
      </trkpt>
      <trkpt lat="48.09514" lon="-1.1577">
        <ele>87</ele>
        <time>2021-12-29T15:01:46Z</time>
      </trkpt>
      <trkpt lat="48.09453" lon="-1.15824">
        <ele>87</ele>
        <time>2021-12-29T15:02:42Z</time>
      </trkpt>
      <trkpt lat="48.09393" lon="-1.15869">
        <ele>86</ele>
        <time>2021-12-29T15:03:36Z</time>
      </trkpt>
      <trkpt lat="48.0938" lon="-1.15864">
        <ele>86</ele>
        <time>2021-12-29T15:03:47Z</time>
      </trkpt>
      <trkpt lat="48.09307" lon="-1.15778">
        <ele>88</ele>
        <time>2021-12-29T15:05:01Z</time>
      </trkpt>
      <trkpt lat="48.09298" lon="-1.15775">
        <ele>88</ele>
        <time>2021-12-29T15:05:09Z</time>
      </trkpt>
      <trkpt lat="48.09272" lon="-1.15777">
        <ele>89</ele>
        <time>2021-12-29T15:05:29Z</time>
      </trkpt>
      <trkpt lat="48.0926" lon="-1.15758">
        <ele>89</ele>
        <time>2021-12-29T15:05:43Z</time>
      </trkpt>
      <trkpt lat="48.09248" lon="-1.15756">
        <ele>89</ele>
        <time>2021-12-29T15:05:53Z</time>
      </trkpt>
      <trkpt lat="48.09165" lon="-1.15771">
        <ele>96</ele>
        <time>2021-12-29T15:07:00Z</time>
      </trkpt>
      <trkpt lat="48.09128" lon="-1.15771">
        <ele>99</ele>
        <time>2021-12-29T15:07:30Z</time>
      </trkpt>
      <trkpt lat="48.09124" lon="-1.15753">
        <ele>100</ele>
        <time>2021-12-29T15:07:40Z</time>
      </trkpt>
      <trkpt lat="48.09129" lon="-1.15682">
        <ele>100</ele>
        <time>2021-12-29T15:08:18Z</time>
      </trkpt>
      <trkpt lat="48.09098" lon="-1.1565">
        <ele>103</ele>
        <time>2021-12-29T15:08:48Z</time>
      </trkpt>
      <trkpt lat="48.09082" lon="-1.15645">
        <ele>105</ele>
        <time>2021-12-29T15:09:01Z</time>
      </trkpt>
      <trkpt lat="48.09061" lon="-1.15662">
        <ele>105</ele>
        <time>2021-12-29T15:09:20Z</time>
      </trkpt>
      <trkpt lat="48.09058" lon="-1.15663">
        <ele>106</ele>
        <time>2021-12-29T15:09:23Z</time>
      </trkpt>
      <trkpt lat="48.09054" lon="-1.15657">
        <ele>106</ele>
        <time>2021-12-29T15:09:27Z</time>
      </trkpt>
      <trkpt lat="48.09052" lon="-1.15576">
        <ele>108</ele>
        <time>2021-12-29T15:10:11Z</time>
      </trkpt>
      <trkpt lat="48.09042" lon="-1.15481">
        <ele>109</ele>
        <time>2021-12-29T15:11:02Z</time>
      </trkpt>
      <trkpt lat="48.09007" lon="-1.15217">
        <ele>115</ele>
        <time>2021-12-29T15:13:26Z</time>
      </trkpt>
      <trkpt lat="48.08962" lon="-1.15012">
        <ele>122</ele>
        <time>2021-12-29T15:15:21Z</time>
      </trkpt>
      <trkpt lat="48.08965" lon="-1.14988">
        <ele>122</ele>
        <time>2021-12-29T15:15:34Z</time>
      </trkpt>
      <trkpt lat="48.09046" lon="-1.14856">
        <ele>119</ele>
        <time>2021-12-29T15:17:10Z</time>
      </trkpt>
      <trkpt lat="48.09062" lon="-1.1482">
        <ele>119</ele>
        <time>2021-12-29T15:17:33Z</time>
      </trkpt>
      <trkpt lat="48.09066" lon="-1.14802">
        <ele>119</ele>
        <time>2021-12-29T15:17:44Z</time>
      </trkpt>
      <trkpt lat="48.09059" lon="-1.14798">
        <ele>119</ele>
        <time>2021-12-29T15:17:50Z</time>
      </trkpt>
      <trkpt lat="48.09009" lon="-1.14822">
        <ele>120</ele>
        <time>2021-12-29T15:18:32Z</time>
      </trkpt>
      <trkpt lat="48.08984" lon="-1.14826">
        <ele>120</ele>
        <time>2021-12-29T15:18:52Z</time>
      </trkpt>
      <trkpt lat="48.08958" lon="-1.14821">
        <ele>121</ele>
        <time>2021-12-29T15:19:13Z</time>
      </trkpt>
      <trkpt lat="48.08899" lon="-1.148">
        <ele>120</ele>
        <time>2021-12-29T15:20:01Z</time>
      </trkpt>
      <trkpt lat="48.08838" lon="-1.14818">
        <ele>119</ele>
        <time>2021-12-29T15:20:51Z</time>
      </trkpt>
      <trkpt lat="48.08777" lon="-1.14781">
        <ele>117</ele>
        <time>2021-12-29T15:21:44Z</time>
      </trkpt>
      <trkpt lat="48.08741" lon="-1.14796">
        <ele>116</ele>
        <time>2021-12-29T15:22:14Z</time>
      </trkpt>
      <trkpt lat="48.0873" lon="-1.14796">
        <ele>116</ele>
        <time>2021-12-29T15:22:22Z</time>
      </trkpt>
      <trkpt lat="48.08722" lon="-1.14789">
        <ele>115</ele>
        <time>2021-12-29T15:22:30Z</time>
      </trkpt>
      <trkpt lat="48.08694" lon="-1.14737">
        <ele>114</ele>
        <time>2021-12-29T15:23:06Z</time>
      </trkpt>
      <trkpt lat="48.08634" lon="-1.1466">
        <ele>111</ele>
        <time>2021-12-29T15:24:09Z</time>
      </trkpt>
      <trkpt lat="48.08617" lon="-1.14659">
        <ele>110</ele>
        <time>2021-12-29T15:24:23Z</time>
      </trkpt>
      <trkpt lat="48.08591" lon="-1.1467">
        <ele>110</ele>
        <time>2021-12-29T15:24:44Z</time>
      </trkpt>
      <trkpt lat="48.08579" lon="-1.14648">
        <ele>109</ele>
        <time>2021-12-29T15:24:59Z</time>
      </trkpt>
      <trkpt lat="48.08533" lon="-1.14611">
        <ele>105</ele>
        <time>2021-12-29T15:25:41Z</time>
      </trkpt>
      <trkpt lat="48.08521" lon="-1.14579">
        <ele>103</ele>
        <time>2021-12-29T15:26:01Z</time>
      </trkpt>
      <trkpt lat="48.08519" lon="-1.14544">
        <ele>102</ele>
        <time>2021-12-29T15:26:20Z</time>
      </trkpt>
      <trkpt lat="48.08511" lon="-1.1453">
        <ele>102</ele>
        <time>2021-12-29T15:26:29Z</time>
      </trkpt>
      <trkpt lat="48.08469" lon="-1.14532">
        <ele>100</ele>
        <time>2021-12-29T15:27:03Z</time>
      </trkpt>
      <trkpt lat="48.08459" lon="-1.14522">
        <ele>99</ele>
        <time>2021-12-29T15:27:13Z</time>
      </trkpt>
      <trkpt lat="48.08456" lon="-1.14497">
        <ele>98</ele>
        <time>2021-12-29T15:27:26Z</time>
      </trkpt>
      <trkpt lat="48.08445" lon="-1.14485">
        <ele>97</ele>
        <time>2021-12-29T15:27:37Z</time>
      </trkpt>
      <trkpt lat="48.08416" lon="-1.14468">
        <ele>95</ele>
        <time>2021-12-29T15:28:02Z</time>
      </trkpt>
      <trkpt lat="48.08385" lon="-1.14459">
        <ele>93</ele>
        <time>2021-12-29T15:28:27Z</time>
      </trkpt>
      <trkpt lat="48.0838" lon="-1.14454">
        <ele>92</ele>
        <time>2021-12-29T15:28:32Z</time>
      </trkpt>
      <trkpt lat="48.08349" lon="-1.14448">
        <ele>91</ele>
        <time>2021-12-29T15:28:57Z</time>
      </trkpt>
      <trkpt lat="48.08344" lon="-1.14429">
        <ele>90</ele>
        <time>2021-12-29T15:29:08Z</time>
      </trkpt>
      <trkpt lat="48.08346" lon="-1.14405">
        <ele>92</ele>
        <time>2021-12-29T15:29:21Z</time>
      </trkpt>
      <trkpt lat="48.08353" lon="-1.14371">
        <ele>95</ele>
        <time>2021-12-29T15:29:40Z</time>
      </trkpt>
      <trkpt lat="48.08368" lon="-1.14329">
        <ele>97</ele>
        <time>2021-12-29T15:30:06Z</time>
      </trkpt>
      <trkpt lat="48.08364" lon="-1.14321">
        <ele>97</ele>
        <time>2021-12-29T15:30:11Z</time>
      </trkpt>
      <trkpt lat="48.08358" lon="-1.14319">
        <ele>97</ele>
        <time>2021-12-29T15:30:16Z</time>
      </trkpt>
      <trkpt lat="48.08342" lon="-1.14322">
        <ele>98</ele>
        <time>2021-12-29T15:30:29Z</time>
      </trkpt>
      <trkpt lat="48.08341" lon="-1.14285">
        <ele>97</ele>
        <time>2021-12-29T15:30:49Z</time>
      </trkpt>
      <trkpt lat="48.0833" lon="-1.14246">
        <ele>97</ele>
        <time>2021-12-29T15:31:11Z</time>
      </trkpt>
      <trkpt lat="48.08333" lon="-1.14176">
        <ele>95</ele>
        <time>2021-12-29T15:31:49Z</time>
      </trkpt>
      <trkpt lat="48.08318" lon="-1.14067">
        <ele>99</ele>
        <time>2021-12-29T15:32:48Z</time>
      </trkpt>
      <trkpt lat="48.08318" lon="-1.14047">
        <ele>100</ele>
        <time>2021-12-29T15:32:59Z</time>
      </trkpt>
      <trkpt lat="48.08344" lon="-1.13931">
        <ele>104</ele>
        <time>2021-12-29T15:34:04Z</time>
      </trkpt>
      <trkpt lat="48.08344" lon="-1.139">
        <ele>105</ele>
        <time>2021-12-29T15:34:21Z</time>
      </trkpt>
      <trkpt lat="48.08305" lon="-1.13774">
        <ele>106</ele>
        <time>2021-12-29T15:35:35Z</time>
      </trkpt>
      <trkpt lat="48.08257" lon="-1.13667">
        <ele>104</ele>
        <time>2021-12-29T15:36:44Z</time>
      </trkpt>
      <trkpt lat="48.08231" lon="-1.13629">
        <ele>104</ele>
        <time>2021-12-29T15:37:13Z</time>
      </trkpt>
      <trkpt lat="48.08229" lon="-1.13599">
        <ele>103</ele>
        <time>2021-12-29T15:37:29Z</time>
      </trkpt>
      <trkpt lat="48.08221" lon="-1.13575">
        <ele>103</ele>
        <time>2021-12-29T15:37:44Z</time>
      </trkpt>
      <trkpt lat="48.08216" lon="-1.13569">
        <ele>103</ele>
        <time>2021-12-29T15:37:49Z</time>
      </trkpt>
      <trkpt lat="48.08194" lon="-1.13578">
        <ele>104</ele>
        <time>2021-12-29T15:38:07Z</time>
      </trkpt>
      <trkpt lat="48.08167" lon="-1.13574">
        <ele>106</ele>
        <time>2021-12-29T15:38:29Z</time>
      </trkpt>
      <trkpt lat="48.08106" lon="-1.13525">
        <ele>107</ele>
        <time>2021-12-29T15:39:24Z</time>
      </trkpt>
      <trkpt lat="48.0809" lon="-1.13507">
        <ele>107</ele>
        <time>2021-12-29T15:39:40Z</time>
      </trkpt>
      <trkpt lat="48.08035" lon="-1.13472">
        <ele>106</ele>
        <time>2021-12-29T15:40:28Z</time>
      </trkpt>
      <trkpt lat="48.07981" lon="-1.13419">
        <ele>106</ele>
        <time>2021-12-29T15:41:20Z</time>
      </trkpt>
      <trkpt lat="48.07958" lon="-1.13391">
        <ele>106</ele>
        <time>2021-12-29T15:41:44Z</time>
      </trkpt>
      <trkpt lat="48.07925" lon="-1.13364">
        <ele>106</ele>
        <time>2021-12-29T15:42:14Z</time>
      </trkpt>
      <trkpt lat="48.07886" lon="-1.1334">
        <ele>107</ele>
        <time>2021-12-29T15:42:48Z</time>
      </trkpt>
      <trkpt lat="48.07865" lon="-1.1332">
        <ele>108</ele>
        <time>2021-12-29T15:43:07Z</time>
      </trkpt>
      <trkpt lat="48.07786" lon="-1.13231">
        <ele>107</ele>
        <time>2021-12-29T15:44:27Z</time>
      </trkpt>
      <trkpt lat="48.07735" lon="-1.13163">
        <ele>108</ele>
        <time>2021-12-29T15:45:21Z</time>
      </trkpt>
      <trkpt lat="48.07708" lon="-1.13142">
        <ele>108</ele>
        <time>2021-12-29T15:45:46Z</time>
      </trkpt>
      <trkpt lat="48.07657" lon="-1.13117">
        <ele>110</ele>
        <time>2021-12-29T15:46:29Z</time>
      </trkpt>
      <trkpt lat="48.07622" lon="-1.1308">
        <ele>111</ele>
        <time>2021-12-29T15:47:03Z</time>
      </trkpt>
      <trkpt lat="48.07576" lon="-1.13052">
        <ele>112</ele>
        <time>2021-12-29T15:47:43Z</time>
      </trkpt>
      <trkpt lat="48.07525" lon="-1.13">
        <ele>113</ele>
        <time>2021-12-29T15:48:32Z</time>
      </trkpt>
      <trkpt lat="48.07518" lon="-1.12999">
        <ele>113</ele>
        <time>2021-12-29T15:48:38Z</time>
      </trkpt>
      <trkpt lat="48.0751" lon="-1.13006">
        <ele>114</ele>
        <time>2021-12-29T15:48:45Z</time>
      </trkpt>
      <trkpt lat="48.07505" lon="-1.13034">
        <ele>113</ele>
        <time>2021-12-29T15:49:01Z</time>
      </trkpt>
      <trkpt lat="48.07505" lon="-1.13159">
        <ele>114</ele>
        <time>2021-12-29T15:50:08Z</time>
      </trkpt>
      <trkpt lat="48.07495" lon="-1.13173">
        <ele>114</ele>
        <time>2021-12-29T15:50:19Z</time>
      </trkpt>
      <trkpt lat="48.07486" lon="-1.13209">
        <ele>114</ele>
        <time>2021-12-29T15:50:39Z</time>
      </trkpt>
      <trkpt lat="48.07483" lon="-1.1324">
        <ele>114</ele>
        <time>2021-12-29T15:50:56Z</time>
      </trkpt>
      <trkpt lat="48.07474" lon="-1.13261">
        <ele>113</ele>
        <time>2021-12-29T15:51:09Z</time>
      </trkpt>
      <trkpt lat="48.07468" lon="-1.13262">
        <ele>113</ele>
        <time>2021-12-29T15:51:14Z</time>
      </trkpt>
      <trkpt lat="48.0746" lon="-1.13255">
        <ele>113</ele>
        <time>2021-12-29T15:51:21Z</time>
      </trkpt>
      <trkpt lat="48.07425" lon="-1.13208">
        <ele>114</ele>
        <time>2021-12-29T15:51:59Z</time>
      </trkpt>
      <trkpt lat="48.07406" lon="-1.13192">
        <ele>114</ele>
        <time>2021-12-29T15:52:17Z</time>
      </trkpt>
      <trkpt lat="48.07334" lon="-1.13091">
        <ele>114</ele>
        <time>2021-12-29T15:53:36Z</time>
      </trkpt>
      <trkpt lat="48.07313" lon="-1.13077">
        <ele>113</ele>
        <time>2021-12-29T15:53:54Z</time>
      </trkpt>
      <trkpt lat="48.07296" lon="-1.13073">
        <ele>113</ele>
        <time>2021-12-29T15:54:08Z</time>
      </trkpt>
      <trkpt lat="48.0729" lon="-1.13077">
        <ele>113</ele>
        <time>2021-12-29T15:54:13Z</time>
      </trkpt>
      <trkpt lat="48.07276" lon="-1.13175">
        <ele>112</ele>
        <time>2021-12-29T15:55:07Z</time>
      </trkpt>
      <trkpt lat="48.0727" lon="-1.13264">
        <ele>112</ele>
        <time>2021-12-29T15:55:55Z</time>
      </trkpt>
      <trkpt lat="48.07259" lon="-1.1333">
        <ele>111</ele>
        <time>2021-12-29T15:56:31Z</time>
      </trkpt>
      <trkpt lat="48.07248" lon="-1.13346">
        <ele>111</ele>
        <time>2021-12-29T15:56:43Z</time>
      </trkpt>
      <trkpt lat="48.07196" lon="-1.13376">
        <ele>109</ele>
        <time>2021-12-29T15:57:28Z</time>
      </trkpt>
      <trkpt lat="48.07143" lon="-1.13425">
        <ele>109</ele>
        <time>2021-12-29T15:58:18Z</time>
      </trkpt>
      <trkpt lat="48.07127" lon="-1.13445">
        <ele>108</ele>
        <time>2021-12-29T15:58:34Z</time>
      </trkpt>
      <trkpt lat="48.07115" lon="-1.13479">
        <ele>108</ele>
        <time>2021-12-29T15:58:55Z</time>
      </trkpt>
      <trkpt lat="48.07093" lon="-1.1361">
        <ele>108</ele>
        <time>2021-12-29T16:00:07Z</time>
      </trkpt>
      <trkpt lat="48.07089" lon="-1.13616">
        <ele>108</ele>
        <time>2021-12-29T16:00:12Z</time>
      </trkpt>
      <trkpt lat="48.07004" lon="-1.13609">
        <ele>108</ele>
        <time>2021-12-29T16:01:20Z</time>
      </trkpt>
      <trkpt lat="48.0697" lon="-1.136">
        <ele>109</ele>
        <time>2021-12-29T16:01:48Z</time>
      </trkpt>
      <trkpt lat="48.06907" lon="-1.13592">
        <ele>111</ele>
        <time>2021-12-29T16:02:38Z</time>
      </trkpt>
      <trkpt lat="48.06875" lon="-1.13593">
        <ele>110</ele>
        <time>2021-12-29T16:03:04Z</time>
      </trkpt>
      <trkpt lat="48.06814" lon="-1.13582">
        <ele>110</ele>
        <time>2021-12-29T16:03:53Z</time>
      </trkpt>
      <trkpt lat="48.06775" lon="-1.13559">
        <ele>110</ele>
        <time>2021-12-29T16:04:27Z</time>
      </trkpt>
      <trkpt lat="48.06707" lon="-1.13548">
        <ele>109</ele>
        <time>2021-12-29T16:05:21Z</time>
      </trkpt>
      <trkpt lat="48.06658" lon="-1.13531">
        <ele>108</ele>
        <time>2021-12-29T16:06:02Z</time>
      </trkpt>
      <trkpt lat="48.06618" lon="-1.13524">
        <ele>107</ele>
        <time>2021-12-29T16:06:34Z</time>
      </trkpt>
      <trkpt lat="48.06598" lon="-1.13513">
        <ele>107</ele>
        <time>2021-12-29T16:06:51Z</time>
      </trkpt>
      <trkpt lat="48.06592" lon="-1.13518">
        <ele>107</ele>
        <time>2021-12-29T16:06:56Z</time>
      </trkpt>
      <trkpt lat="48.0659" lon="-1.13527">
        <ele>107</ele>
        <time>2021-12-29T16:07:01Z</time>
      </trkpt>
      <trkpt lat="48.06588" lon="-1.13574">
        <ele>107</ele>
        <time>2021-12-29T16:07:27Z</time>
      </trkpt>
      <trkpt lat="48.06577" lon="-1.13644">
        <ele>107</ele>
        <time>2021-12-29T16:08:05Z</time>
      </trkpt>
      <trkpt lat="48.06572" lon="-1.13655">
        <ele>107</ele>
        <time>2021-12-29T16:08:12Z</time>
      </trkpt>
      <trkpt lat="48.06504" lon="-1.13649">
        <ele>104</ele>
        <time>2021-12-29T16:09:07Z</time>
      </trkpt>
      <trkpt lat="48.06468" lon="-1.13652">
        <ele>104</ele>
        <time>2021-12-29T16:09:36Z</time>
      </trkpt>
      <trkpt lat="48.06437" lon="-1.13638">
        <ele>103</ele>
        <time>2021-12-29T16:10:02Z</time>
      </trkpt>
      <trkpt lat="48.06402" lon="-1.13634">
        <ele>102</ele>
        <time>2021-12-29T16:10:30Z</time>
      </trkpt>
      <trkpt lat="48.0634" lon="-1.13612">
        <ele>100</ele>
        <time>2021-12-29T16:11:21Z</time>
      </trkpt>
      <trkpt lat="48.06314" lon="-1.13607">
        <ele>98</ele>
        <time>2021-12-29T16:11:42Z</time>
      </trkpt>
      <trkpt lat="48.063" lon="-1.13599">
        <ele>97</ele>
        <time>2021-12-29T16:11:54Z</time>
      </trkpt>
      <trkpt lat="48.06287" lon="-1.13599">
        <ele>96</ele>
        <time>2021-12-29T16:12:04Z</time>
      </trkpt>
      <trkpt lat="48.06281" lon="-1.13603">
        <ele>96</ele>
        <time>2021-12-29T16:12:09Z</time>
      </trkpt>
      <trkpt lat="48.06258" lon="-1.13703">
        <ele>97</ele>
        <time>2021-12-29T16:13:06Z</time>
      </trkpt>
      <trkpt lat="48.06249" lon="-1.13775">
        <ele>98</ele>
        <time>2021-12-29T16:13:45Z</time>
      </trkpt>
      <trkpt lat="48.06217" lon="-1.1382">
        <ele>97</ele>
        <time>2021-12-29T16:14:20Z</time>
      </trkpt>
      <trkpt lat="48.0621" lon="-1.1384">
        <ele>96</ele>
        <time>2021-12-29T16:14:32Z</time>
      </trkpt>
      <trkpt lat="48.06207" lon="-1.13884">
        <ele>97</ele>
        <time>2021-12-29T16:14:56Z</time>
      </trkpt>
      <trkpt lat="48.06211" lon="-1.13916">
        <ele>98</ele>
        <time>2021-12-29T16:15:14Z</time>
      </trkpt>
      <trkpt lat="48.06186" lon="-1.13991">
        <ele>96</ele>
        <time>2021-12-29T16:15:58Z</time>
      </trkpt>
      <trkpt lat="48.06189" lon="-1.14001">
        <ele>97</ele>
        <time>2021-12-29T16:16:04Z</time>
      </trkpt>
      <trkpt lat="48.06211" lon="-1.14025">
        <ele>99</ele>
        <time>2021-12-29T16:16:26Z</time>
      </trkpt>
      <trkpt lat="48.06237" lon="-1.1404">
        <ele>101</ele>
        <time>2021-12-29T16:16:48Z</time>
      </trkpt>
      <trkpt lat="48.06243" lon="-1.14062">
        <ele>102</ele>
        <time>2021-12-29T16:17:01Z</time>
      </trkpt>
      <trkpt lat="48.06235" lon="-1.14086">
        <ele>102</ele>
        <time>2021-12-29T16:17:15Z</time>
      </trkpt>
      <trkpt lat="48.06234" lon="-1.14102">
        <ele>101</ele>
        <time>2021-12-29T16:17:24Z</time>
      </trkpt>
      <trkpt lat="48.06241" lon="-1.14141">
        <ele>102</ele>
        <time>2021-12-29T16:17:46Z</time>
      </trkpt>
      <trkpt lat="48.06242" lon="-1.14253">
        <ele>101</ele>
        <time>2021-12-29T16:18:46Z</time>
      </trkpt>
      <trkpt lat="48.06246" lon="-1.14267">
        <ele>102</ele>
        <time>2021-12-29T16:18:54Z</time>
      </trkpt>
      <trkpt lat="48.06248" lon="-1.14311">
        <ele>104</ele>
        <time>2021-12-29T16:19:17Z</time>
      </trkpt>
      <trkpt lat="48.06254" lon="-1.14333">
        <ele>105</ele>
        <time>2021-12-29T16:19:30Z</time>
      </trkpt>
      <trkpt lat="48.06254" lon="-1.14411">
        <ele>104</ele>
        <time>2021-12-29T16:20:12Z</time>
      </trkpt>
      <trkpt lat="48.06273" lon="-1.14529">
        <ele>102</ele>
        <time>2021-12-29T16:21:17Z</time>
      </trkpt>
      <trkpt lat="48.06275" lon="-1.1464">
        <ele>99</ele>
        <time>2021-12-29T16:22:16Z</time>
      </trkpt>
      <trkpt lat="48.06285" lon="-1.14726">
        <ele>98</ele>
        <time>2021-12-29T16:23:03Z</time>
      </trkpt>
      <trkpt lat="48.06286" lon="-1.14777">
        <ele>98</ele>
        <time>2021-12-29T16:23:30Z</time>
      </trkpt>
      <trkpt lat="48.06291" lon="-1.14822">
        <ele>98</ele>
        <time>2021-12-29T16:23:55Z</time>
      </trkpt>
      <trkpt lat="48.06297" lon="-1.14833">
        <ele>98</ele>
        <time>2021-12-29T16:24:02Z</time>
      </trkpt>
      <trkpt lat="48.0629" lon="-1.14872">
        <ele>97</ele>
        <time>2021-12-29T16:24:24Z</time>
      </trkpt>
      <trkpt lat="48.06296" lon="-1.14939">
        <ele>97</ele>
        <time>2021-12-29T16:25:00Z</time>
      </trkpt>
      <trkpt lat="48.06305" lon="-1.1498">
        <ele>96</ele>
        <time>2021-12-29T16:25:23Z</time>
      </trkpt>
      <trkpt lat="48.06308" lon="-1.1508">
        <ele>94</ele>
        <time>2021-12-29T16:26:17Z</time>
      </trkpt>
      <trkpt lat="48.06314" lon="-1.15116">
        <ele>94</ele>
        <time>2021-12-29T16:26:36Z</time>
      </trkpt>
      <trkpt lat="48.06311" lon="-1.15132">
        <ele>93</ele>
        <time>2021-12-29T16:26:45Z</time>
      </trkpt>
      <trkpt lat="48.06303" lon="-1.15151">
        <ele>92</ele>
        <time>2021-12-29T16:26:57Z</time>
      </trkpt>
      <trkpt lat="48.06247" lon="-1.15224">
        <ele>87</ele>
        <time>2021-12-29T16:27:57Z</time>
      </trkpt>
      <trkpt lat="48.06221" lon="-1.15241">
        <ele>85</ele>
        <time>2021-12-29T16:28:20Z</time>
      </trkpt>
      <trkpt lat="48.06199" lon="-1.15244">
        <ele>83</ele>
        <time>2021-12-29T16:28:37Z</time>
      </trkpt>
      <trkpt lat="48.06167" lon="-1.15256">
        <ele>80</ele>
        <time>2021-12-29T16:29:04Z</time>
      </trkpt>
      <trkpt lat="48.06112" lon="-1.15269">
        <ele>77</ele>
        <time>2021-12-29T16:29:48Z</time>
      </trkpt>
      <trkpt lat="48.06085" lon="-1.15264">
        <ele>76</ele>
        <time>2021-12-29T16:30:10Z</time>
      </trkpt>
      <trkpt lat="48.06054" lon="-1.15248">
        <ele>75</ele>
        <time>2021-12-29T16:30:36Z</time>
      </trkpt>
      <trkpt lat="48.05997" lon="-1.15209">
        <ele>74</ele>
        <time>2021-12-29T16:31:26Z</time>
      </trkpt>
      <trkpt lat="48.05971" lon="-1.15195">
        <ele>74</ele>
        <time>2021-12-29T16:31:49Z</time>
      </trkpt>
      <trkpt lat="48.05949" lon="-1.15191">
        <ele>74</ele>
        <time>2021-12-29T16:32:06Z</time>
      </trkpt>
      <trkpt lat="48.05929" lon="-1.15182">
        <ele>75</ele>
        <time>2021-12-29T16:32:23Z</time>
      </trkpt>
      <trkpt lat="48.05906" lon="-1.15163">
        <ele>76</ele>
        <time>2021-12-29T16:32:44Z</time>
      </trkpt>
      <trkpt lat="48.05885" lon="-1.15154">
        <ele>77</ele>
        <time>2021-12-29T16:33:02Z</time>
      </trkpt>
      <trkpt lat="48.05819" lon="-1.15159">
        <ele>79</ele>
        <time>2021-12-29T16:33:54Z</time>
      </trkpt>
      <trkpt lat="48.0576" lon="-1.15171">
        <ele>79</ele>
        <time>2021-12-29T16:34:42Z</time>
      </trkpt>
      <trkpt lat="48.0574" lon="-1.15181">
        <ele>79</ele>
        <time>2021-12-29T16:34:59Z</time>
      </trkpt>
      <trkpt lat="48.05704" lon="-1.15209">
        <ele>78</ele>
        <time>2021-12-29T16:35:32Z</time>
      </trkpt>
      <trkpt lat="48.05695" lon="-1.15224">
        <ele>77</ele>
        <time>2021-12-29T16:35:42Z</time>
      </trkpt>
      <trkpt lat="48.05691" lon="-1.15247">
        <ele>76</ele>
        <time>2021-12-29T16:35:55Z</time>
      </trkpt>
      <trkpt lat="48.05697" lon="-1.15295">
        <ele>75</ele>
        <time>2021-12-29T16:36:21Z</time>
      </trkpt>
      <trkpt lat="48.05685" lon="-1.15365">
        <ele>73</ele>
        <time>2021-12-29T16:37:00Z</time>
      </trkpt>
      <trkpt lat="48.0567" lon="-1.15368">
        <ele>73</ele>
        <time>2021-12-29T16:37:12Z</time>
      </trkpt>
      <trkpt lat="48.05662" lon="-1.15362">
        <ele>73</ele>
        <time>2021-12-29T16:37:19Z</time>
      </trkpt>
      <trkpt lat="48.05646" lon="-1.15339">
        <ele>74</ele>
        <time>2021-12-29T16:37:37Z</time>
      </trkpt>
      <trkpt lat="48.05628" lon="-1.15299">
        <ele>75</ele>
        <time>2021-12-29T16:38:03Z</time>
      </trkpt>
      <trkpt lat="48.05598" lon="-1.15277">
        <ele>77</ele>
        <time>2021-12-29T16:38:29Z</time>
      </trkpt>
      <trkpt lat="48.05588" lon="-1.15279">
        <ele>77</ele>
        <time>2021-12-29T16:38:38Z</time>
      </trkpt>
      <trkpt lat="48.05565" lon="-1.153">
        <ele>77</ele>
        <time>2021-12-29T16:38:59Z</time>
      </trkpt>
      <trkpt lat="48.05549" lon="-1.15299">
        <ele>77</ele>
        <time>2021-12-29T16:39:12Z</time>
      </trkpt>
      <trkpt lat="48.05526" lon="-1.15305">
        <ele>77</ele>
        <time>2021-12-29T16:39:31Z</time>
      </trkpt>
      <trkpt lat="48.05499" lon="-1.15323">
        <ele>76</ele>
        <time>2021-12-29T16:39:54Z</time>
      </trkpt>
      <trkpt lat="48.05502" lon="-1.15347">
        <ele>76</ele>
        <time>2021-12-29T16:40:07Z</time>
      </trkpt>
      <trkpt lat="48.05524" lon="-1.15383">
        <ele>76</ele>
        <time>2021-12-29T16:40:33Z</time>
      </trkpt>
      <trkpt lat="48.0552" lon="-1.15391">
        <ele>77</ele>
        <time>2021-12-29T16:40:39Z</time>
      </trkpt>
      <trkpt lat="48.05504" lon="-1.15398">
        <ele>77</ele>
        <time>2021-12-29T16:40:52Z</time>
      </trkpt>
      <trkpt lat="48.05488" lon="-1.15391">
        <ele>77</ele>
        <time>2021-12-29T16:41:05Z</time>
      </trkpt>
      <trkpt lat="48.05445" lon="-1.15384">
        <ele>77</ele>
        <time>2021-12-29T16:41:40Z</time>
      </trkpt>
      <trkpt lat="48.05438" lon="-1.15399">
        <ele>77</ele>
        <time>2021-12-29T16:41:50Z</time>
      </trkpt>
      <trkpt lat="48.05434" lon="-1.15456">
        <ele>76</ele>
        <time>2021-12-29T16:42:21Z</time>
      </trkpt>
      <trkpt lat="48.05427" lon="-1.15484">
        <ele>76</ele>
        <time>2021-12-29T16:42:37Z</time>
      </trkpt>
      <trkpt lat="48.05433" lon="-1.15525">
        <ele>75</ele>
        <time>2021-12-29T16:42:59Z</time>
      </trkpt>
      <trkpt lat="48.05411" lon="-1.15541">
        <ele>74</ele>
        <time>2021-12-29T16:43:19Z</time>
      </trkpt>
      <trkpt lat="48.05407" lon="-1.15548">
        <ele>74</ele>
        <time>2021-12-29T16:43:24Z</time>
      </trkpt>
      <trkpt lat="48.0543" lon="-1.15643">
        <ele>75</ele>
        <time>2021-12-29T16:44:18Z</time>
      </trkpt>
      <trkpt lat="48.05434" lon="-1.15689">
        <ele>76</ele>
        <time>2021-12-29T16:44:42Z</time>
      </trkpt>
      <trkpt lat="48.05427" lon="-1.15706">
        <ele>77</ele>
        <time>2021-12-29T16:44:53Z</time>
      </trkpt>
      <trkpt lat="48.05411" lon="-1.15723">
        <ele>77</ele>
        <time>2021-12-29T16:45:09Z</time>
      </trkpt>
      <trkpt lat="48.05343" lon="-1.15744">
        <ele>78</ele>
        <time>2021-12-29T16:46:04Z</time>
      </trkpt>
      <trkpt lat="48.05339" lon="-1.15757">
        <ele>78</ele>
        <time>2021-12-29T16:46:12Z</time>
      </trkpt>
      <trkpt lat="48.05356" lon="-1.15845">
        <ele>81</ele>
        <time>2021-12-29T16:47:01Z</time>
      </trkpt>
      <trkpt lat="48.05384" lon="-1.15921">
        <ele>82</ele>
        <time>2021-12-29T16:47:48Z</time>
      </trkpt>
      <trkpt lat="48.05375" lon="-1.15965">
        <ele>83</ele>
        <time>2021-12-29T16:48:12Z</time>
      </trkpt>
      <trkpt lat="48.05386" lon="-1.16049">
        <ele>84</ele>
        <time>2021-12-29T16:48:58Z</time>
      </trkpt>
      <trkpt lat="48.05387" lon="-1.16085">
        <ele>85</ele>
        <time>2021-12-29T16:49:17Z</time>
      </trkpt>
      <trkpt lat="48.0539" lon="-1.16103">
        <ele>86</ele>
        <time>2021-12-29T16:49:27Z</time>
      </trkpt>
      <trkpt lat="48.05404" lon="-1.16139">
        <ele>87</ele>
        <time>2021-12-29T16:49:50Z</time>
      </trkpt>
      <trkpt lat="48.05419" lon="-1.16154">
        <ele>88</ele>
        <time>2021-12-29T16:50:04Z</time>
      </trkpt>
      <trkpt lat="48.05415" lon="-1.16176">
        <ele>88</ele>
        <time>2021-12-29T16:50:16Z</time>
      </trkpt>
      <trkpt lat="48.05406" lon="-1.16182">
        <ele>88</ele>
        <time>2021-12-29T16:50:24Z</time>
      </trkpt>
      <trkpt lat="48.05413" lon="-1.16187">
        <ele>88</ele>
        <time>2021-12-29T16:50:30Z</time>
      </trkpt>
      <trkpt lat="48.05404" lon="-1.16179">
        <ele>88</ele>
        <time>2021-12-29T16:50:39Z</time>
      </trkpt>
      <trkpt lat="48.05409" lon="-1.16183">
        <ele>88</ele>
        <time>2021-12-29T16:50:43Z</time>
      </trkpt>
      <trkpt lat="48.05407" lon="-1.16176">
        <ele>88</ele>
        <time>2021-12-29T16:50:47Z</time>
      </trkpt>
      <trkpt lat="48.05413" lon="-1.16188">
        <ele>88</ele>
        <time>2021-12-29T16:50:55Z</time>
      </trkpt>
      <trkpt lat="48.0541" lon="-1.16201">
        <ele>88</ele>
        <time>2021-12-29T16:51:03Z</time>
      </trkpt>
      <trkpt lat="48.05409" lon="-1.1619">
        <ele>88</ele>
        <time>2021-12-29T16:51:09Z</time>
      </trkpt>
      <trkpt lat="48.05407" lon="-1.16196">
        <ele>88</ele>
        <time>2021-12-29T16:51:12Z</time>
      </trkpt>
      <trkpt lat="48.05408" lon="-1.16204">
        <ele>88</ele>
        <time>2021-12-29T16:51:17Z</time>
      </trkpt>
      <trkpt lat="48.05415" lon="-1.1621">
        <ele>89</ele>
        <time>2021-12-29T16:51:23Z</time>
      </trkpt>
      <trkpt lat="48.05411" lon="-1.16222">
        <ele>89</ele>
        <time>2021-12-29T16:51:30Z</time>
      </trkpt>
      <trkpt lat="48.05409" lon="-1.1621">
        <ele>89</ele>
        <time>2021-12-29T16:51:37Z</time>
      </trkpt>
      <trkpt lat="48.05415" lon="-1.16207">
        <ele>88</ele>
        <time>2021-12-29T16:51:42Z</time>
      </trkpt>
      <trkpt lat="48.0541" lon="-1.16215">
        <ele>89</ele>
        <time>2021-12-29T16:51:48Z</time>
      </trkpt>
      <trkpt lat="48.05405" lon="-1.16215">
        <ele>89</ele>
        <time>2021-12-29T16:51:52Z</time>
      </trkpt>
      <trkpt lat="48.05408" lon="-1.16209">
        <ele>89</ele>
        <time>2021-12-29T16:51:56Z</time>
      </trkpt>
      <trkpt lat="48.05411" lon="-1.16211">
        <ele>89</ele>
        <time>2021-12-29T16:51:58Z</time>
      </trkpt>
      <trkpt lat="48.05413" lon="-1.16183">
        <ele>88</ele>
        <time>2021-12-29T16:52:13Z</time>
      </trkpt>
      <trkpt lat="48.05417" lon="-1.16183">
        <ele>88</ele>
        <time>2021-12-29T16:52:17Z</time>
      </trkpt>
      <trkpt lat="48.05413" lon="-1.16209">
        <ele>89</ele>
        <time>2021-12-29T16:52:31Z</time>
      </trkpt>
    </trkseg>
  </trk>
</gpx>